sensor_id;sensor_type;location;lat;lon;timestamp;P1;durP1;ratioP1;P2;durP2;ratioP2
52786;SDS011;38661;53.152;5.846;2023-07-29T00:01:40;9.75;;;6.28;;
52786;SDS011;38661;53.152;5.846;2023-07-29T00:04:06;12.15;;;6.85;;
52786;SDS011;38661;53.152;5.846;2023-07-29T00:06:34;9.50;;;7.15;;
52786;SDS011;38661;53.152;5.846;2023-07-29T00:09:00;9.38;;;6.28;;
52786;SDS011;38661;53.152;5.846;2023-07-29T00:11:26;10.38;;;6.15;;
52786;SDS011;38661;53.152;5.846;2023-07-29T00:13:52;12.68;;;7.30;;
52786;SDS011;38661;53.152;5.846;2023-07-29T00:16:18;12.95;;;7.03;;
52786;SDS011;38661;53.152;5.846;2023-07-29T00:18:47;9.77;;;6.68;;
52786;SDS011;38661;53.152;5.846;2023-07-29T00:21:13;10.50;;;7.13;;
52786;SDS011;38661;53.152;5.846;2023-07-29T00:23:39;11.38;;;7.05;;
52786;SDS011;38661;53.152;5.846;2023-07-29T00:26:04;11.73;;;7.35;;
52786;SDS011;38661;53.152;5.846;2023-07-29T00:28:30;10.32;;;6.60;;
52786;SDS011;38661;53.152;5.846;2023-07-29T00:30:56;8.13;;;6.70;;
52786;SDS011;38661;53.152;5.846;2023-07-29T00:33:22;14.25;;;6.75;;
52786;SDS011;38661;53.152;5.846;2023-07-29T00:35:47;8.23;;;6.20;;
52786;SDS011;38661;53.152;5.846;2023-07-29T00:38:13;10.07;;;6.45;;
52786;SDS011;38661;53.152;5.846;2023-07-29T00:40:39;10.50;;;6.72;;
52786;SDS011;38661;53.152;5.846;2023-07-29T00:43:04;10.60;;;5.80;;
52786;SDS011;38661;53.152;5.846;2023-07-29T00:45:31;7.65;;;5.43;;
52786;SDS011;38661;53.152;5.846;2023-07-29T00:47:58;11.25;;;5.88;;
52786;SDS011;38661;53.152;5.846;2023-07-29T00:50:24;9.32;;;5.70;;
52786;SDS011;38661;53.152;5.846;2023-07-29T00:52:53;10.82;;;7.20;;
52786;SDS011;38661;53.152;5.846;2023-07-29T00:55:19;8.90;;;6.47;;
52786;SDS011;38661;53.152;5.846;2023-07-29T00:57:45;10.02;;;6.57;;
52786;SDS011;38661;53.152;5.846;2023-07-29T01:00:13;8.77;;;6.28;;
52786;SDS011;38661;53.152;5.846;2023-07-29T01:02:41;9.20;;;6.38;;
52786;SDS011;38661;53.152;5.846;2023-07-29T01:05:07;10.40;;;5.75;;
52786;SDS011;38661;53.152;5.846;2023-07-29T01:07:36;8.57;;;5.25;;
52786;SDS011;38661;53.152;5.846;2023-07-29T01:10:12;8.52;;;5.97;;
52786;SDS011;38661;53.152;5.846;2023-07-29T01:15:33;8.88;;;6.80;;
52786;SDS011;38661;53.152;5.846;2023-07-29T01:18:08;9.82;;;6.10;;
52786;SDS011;38661;53.152;5.846;2023-07-29T01:20:40;10.00;;;6.55;;
52786;SDS011;38661;53.152;5.846;2023-07-29T01:23:07;11.13;;;6.57;;
52786;SDS011;38661;53.152;5.846;2023-07-29T01:25:33;10.10;;;6.90;;
52786;SDS011;38661;53.152;5.846;2023-07-29T01:27:59;8.07;;;6.60;;
52786;SDS011;38661;53.152;5.846;2023-07-29T01:30:26;8.82;;;6.95;;
52786;SDS011;38661;53.152;5.846;2023-07-29T01:35:41;9.98;;;7.03;;
52786;SDS011;38661;53.152;5.846;2023-07-29T01:40:44;13.82;;;7.07;;
52786;SDS011;38661;53.152;5.846;2023-07-29T01:43:11;8.98;;;7.10;;
52786;SDS011;38661;53.152;5.846;2023-07-29T01:45:38;13.02;;;7.65;;
52786;SDS011;38661;53.152;5.846;2023-07-29T01:48:04;9.32;;;7.15;;
52786;SDS011;38661;53.152;5.846;2023-07-29T01:50:31;7.80;;;6.55;;
52786;SDS011;38661;53.152;5.846;2023-07-29T01:52:59;8.05;;;6.50;;
52786;SDS011;38661;53.152;5.846;2023-07-29T01:55:25;10.82;;;7.20;;
52786;SDS011;38661;53.152;5.846;2023-07-29T01:57:51;8.48;;;5.93;;
52786;SDS011;38661;53.152;5.846;2023-07-29T02:00:20;17.08;;;7.40;;
52786;SDS011;38661;53.152;5.846;2023-07-29T02:02:46;10.07;;;6.07;;
52786;SDS011;38661;53.152;5.846;2023-07-29T02:05:12;10.68;;;6.50;;
52786;SDS011;38661;53.152;5.846;2023-07-29T02:07:38;11.93;;;6.75;;
52786;SDS011;38661;53.152;5.846;2023-07-29T02:10:03;10.02;;;7.00;;
52786;SDS011;38661;53.152;5.846;2023-07-29T02:12:29;12.02;;;6.35;;
52786;SDS011;38661;53.152;5.846;2023-07-29T02:14:55;14.88;;;5.90;;
52786;SDS011;38661;53.152;5.846;2023-07-29T02:17:21;9.02;;;5.30;;
52786;SDS011;38661;53.152;5.846;2023-07-29T02:19:46;9.40;;;6.05;;
52786;SDS011;38661;53.152;5.846;2023-07-29T02:22:16;10.85;;;6.03;;
52786;SDS011;38661;53.152;5.846;2023-07-29T02:24:42;10.15;;;5.88;;
52786;SDS011;38661;53.152;5.846;2023-07-29T02:27:08;9.90;;;5.53;;
52786;SDS011;38661;53.152;5.846;2023-07-29T02:29:34;9.60;;;4.95;;
52786;SDS011;38661;53.152;5.846;2023-07-29T02:32:00;11.10;;;6.25;;
52786;SDS011;38661;53.152;5.846;2023-07-29T02:34:26;8.32;;;5.30;;
52786;SDS011;38661;53.152;5.846;2023-07-29T02:36:51;9.18;;;5.07;;
52786;SDS011;38661;53.152;5.846;2023-07-29T02:39:17;11.15;;;5.07;;
52786;SDS011;38661;53.152;5.846;2023-07-29T02:41:43;8.75;;;4.90;;
52786;SDS011;38661;53.152;5.846;2023-07-29T02:44:08;9.43;;;5.45;;
52786;SDS011;38661;53.152;5.846;2023-07-29T02:46:34;13.43;;;5.63;;
52786;SDS011;38661;53.152;5.846;2023-07-29T02:49:01;11.63;;;5.20;;
52786;SDS011;38661;53.152;5.846;2023-07-29T02:51:27;9.90;;;4.75;;
52786;SDS011;38661;53.152;5.846;2023-07-29T02:53:53;11.32;;;5.47;;
52786;SDS011;38661;53.152;5.846;2023-07-29T02:56:19;10.02;;;4.57;;
52786;SDS011;38661;53.152;5.846;2023-07-29T02:58:45;9.00;;;5.15;;
52786;SDS011;38661;53.152;5.846;2023-07-29T03:01:10;9.82;;;5.28;;
52786;SDS011;38661;53.152;5.846;2023-07-29T03:03:36;9.18;;;4.63;;
52786;SDS011;38661;53.152;5.846;2023-07-29T03:06:03;7.95;;;4.40;;
52786;SDS011;38661;53.152;5.846;2023-07-29T03:08:33;15.55;;;5.82;;
52786;SDS011;38661;53.152;5.846;2023-07-29T03:11:04;11.60;;;4.78;;
52786;SDS011;38661;53.152;5.846;2023-07-29T03:13:32;10.32;;;4.55;;
52786;SDS011;38661;53.152;5.846;2023-07-29T03:16:14;9.57;;;4.75;;
52786;SDS011;38661;53.152;5.846;2023-07-29T03:18:41;9.50;;;3.80;;
52786;SDS011;38661;53.152;5.846;2023-07-29T03:21:07;9.85;;;4.22;;
52786;SDS011;38661;53.152;5.846;2023-07-29T03:23:34;8.32;;;5.20;;
52786;SDS011;38661;53.152;5.846;2023-07-29T03:26:00;7.70;;;4.32;;
52786;SDS011;38661;53.152;5.846;2023-07-29T03:28:30;9.05;;;4.88;;
52786;SDS011;38661;53.152;5.846;2023-07-29T03:30:57;8.18;;;4.50;;
52786;SDS011;38661;53.152;5.846;2023-07-29T03:33:24;10.73;;;4.57;;
52786;SDS011;38661;53.152;5.846;2023-07-29T03:35:50;12.95;;;4.40;;
52786;SDS011;38661;53.152;5.846;2023-07-29T03:38:17;15.27;;;5.93;;
52786;SDS011;38661;53.152;5.846;2023-07-29T03:40:43;9.32;;;4.43;;
52786;SDS011;38661;53.152;5.846;2023-07-29T03:43:08;7.88;;;4.95;;
52786;SDS011;38661;53.152;5.846;2023-07-29T03:45:35;11.25;;;4.63;;
52786;SDS011;38661;53.152;5.846;2023-07-29T03:48:01;10.65;;;4.95;;
52786;SDS011;38661;53.152;5.846;2023-07-29T03:50:28;8.60;;;4.55;;
52786;SDS011;38661;53.152;5.846;2023-07-29T03:52:54;6.25;;;3.80;;
52786;SDS011;38661;53.152;5.846;2023-07-29T03:55:20;7.05;;;3.90;;
52786;SDS011;38661;53.152;5.846;2023-07-29T03:57:46;7.60;;;3.58;;
52786;SDS011;38661;53.152;5.846;2023-07-29T04:00:12;8.63;;;4.00;;
52786;SDS011;38661;53.152;5.846;2023-07-29T04:02:38;9.52;;;4.25;;
52786;SDS011;38661;53.152;5.846;2023-07-29T04:05:04;7.00;;;3.40;;
52786;SDS011;38661;53.152;5.846;2023-07-29T04:07:33;6.78;;;3.63;;
52786;SDS011;38661;53.152;5.846;2023-07-29T04:10:02;7.30;;;3.90;;
52786;SDS011;38661;53.152;5.846;2023-07-29T04:12:29;10.88;;;3.67;;
52786;SDS011;38661;53.152;5.846;2023-07-29T04:15:02;8.55;;;4.03;;
52786;SDS011;38661;53.152;5.846;2023-07-29T04:17:28;9.88;;;4.07;;
52786;SDS011;38661;53.152;5.846;2023-07-29T04:19:53;7.60;;;3.92;;
52786;SDS011;38661;53.152;5.846;2023-07-29T04:22:19;6.63;;;3.78;;
52786;SDS011;38661;53.152;5.846;2023-07-29T04:24:46;7.28;;;4.28;;
52786;SDS011;38661;53.152;5.846;2023-07-29T04:27:12;9.82;;;3.97;;
52786;SDS011;38661;53.152;5.846;2023-07-29T04:29:37;10.13;;;4.03;;
52786;SDS011;38661;53.152;5.846;2023-07-29T04:32:03;8.93;;;3.40;;
52786;SDS011;38661;53.152;5.846;2023-07-29T04:34:30;5.28;;;3.38;;
52786;SDS011;38661;53.152;5.846;2023-07-29T04:36:56;7.65;;;3.67;;
52786;SDS011;38661;53.152;5.846;2023-07-29T04:39:22;5.78;;;2.97;;
52786;SDS011;38661;53.152;5.846;2023-07-29T04:41:48;8.13;;;3.42;;
52786;SDS011;38661;53.152;5.846;2023-07-29T04:44:13;7.18;;;3.35;;
52786;SDS011;38661;53.152;5.846;2023-07-29T04:46:39;8.43;;;3.25;;
52786;SDS011;38661;53.152;5.846;2023-07-29T04:49:05;6.28;;;3.50;;
52786;SDS011;38661;53.152;5.846;2023-07-29T04:51:30;7.07;;;3.80;;
52786;SDS011;38661;53.152;5.846;2023-07-29T04:53:59;11.40;;;3.58;;
52786;SDS011;38661;53.152;5.846;2023-07-29T04:56:25;6.10;;;3.55;;
52786;SDS011;38661;53.152;5.846;2023-07-29T04:58:51;4.75;;;2.88;;
52786;SDS011;38661;53.152;5.846;2023-07-29T05:01:17;9.07;;;3.78;;
52786;SDS011;38661;53.152;5.846;2023-07-29T05:03:43;8.25;;;4.43;;
52786;SDS011;38661;53.152;5.846;2023-07-29T05:06:09;10.88;;;4.03;;
52786;SDS011;38661;53.152;5.846;2023-07-29T05:08:34;9.75;;;4.18;;
52786;SDS011;38661;53.152;5.846;2023-07-29T05:11:01;9.25;;;3.58;;
52786;SDS011;38661;53.152;5.846;2023-07-29T05:13:27;9.05;;;3.85;;
52786;SDS011;38661;53.152;5.846;2023-07-29T05:15:53;9.18;;;4.10;;
52786;SDS011;38661;53.152;5.846;2023-07-29T05:18:19;9.90;;;3.55;;
52786;SDS011;38661;53.152;5.846;2023-07-29T05:20:46;9.35;;;3.60;;
52786;SDS011;38661;53.152;5.846;2023-07-29T05:23:12;10.27;;;3.92;;
52786;SDS011;38661;53.152;5.846;2023-07-29T05:25:37;10.80;;;4.38;;
52786;SDS011;38661;53.152;5.846;2023-07-29T05:28:03;10.20;;;4.20;;
52786;SDS011;38661;53.152;5.846;2023-07-29T05:30:29;13.02;;;4.47;;
52786;SDS011;38661;53.152;5.846;2023-07-29T05:33:05;9.33;;;3.87;;
52786;SDS011;38661;53.152;5.846;2023-07-29T05:35:33;9.48;;;4.53;;
52786;SDS011;38661;53.152;5.846;2023-07-29T05:37:59;12.63;;;4.68;;
52786;SDS011;38661;53.152;5.846;2023-07-29T05:40:25;9.98;;;3.90;;
52786;SDS011;38661;53.152;5.846;2023-07-29T05:42:50;9.35;;;4.45;;
52786;SDS011;38661;53.152;5.846;2023-07-29T05:45:16;10.38;;;4.45;;
52786;SDS011;38661;53.152;5.846;2023-07-29T05:47:42;8.98;;;4.70;;
52786;SDS011;38661;53.152;5.846;2023-07-29T05:50:08;9.02;;;4.05;;
52786;SDS011;38661;53.152;5.846;2023-07-29T05:52:34;14.40;;;5.05;;
52786;SDS011;38661;53.152;5.846;2023-07-29T05:55:00;10.18;;;5.53;;
52786;SDS011;38661;53.152;5.846;2023-07-29T05:57:25;9.93;;;4.60;;
52786;SDS011;38661;53.152;5.846;2023-07-29T05:59:52;9.75;;;3.97;;
52786;SDS011;38661;53.152;5.846;2023-07-29T06:02:17;11.57;;;4.15;;
52786;SDS011;38661;53.152;5.846;2023-07-29T06:04:43;13.20;;;4.22;;
52786;SDS011;38661;53.152;5.846;2023-07-29T06:07:09;11.77;;;4.13;;
52786;SDS011;38661;53.152;5.846;2023-07-29T06:09:34;9.00;;;4.07;;
52786;SDS011;38661;53.152;5.846;2023-07-29T06:12:00;12.85;;;4.28;;
52786;SDS011;38661;53.152;5.846;2023-07-29T06:14:26;10.23;;;4.10;;
52786;SDS011;38661;53.152;5.846;2023-07-29T06:16:51;8.52;;;4.10;;
52786;SDS011;38661;53.152;5.846;2023-07-29T06:19:18;10.88;;;4.65;;
52786;SDS011;38661;53.152;5.846;2023-07-29T06:21:45;11.48;;;4.28;;
52786;SDS011;38661;53.152;5.846;2023-07-29T06:24:10;10.48;;;4.22;;
52786;SDS011;38661;53.152;5.846;2023-07-29T06:26:36;10.20;;;3.88;;
52786;SDS011;38661;53.152;5.846;2023-07-29T06:29:02;12.98;;;4.35;;
52786;SDS011;38661;53.152;5.846;2023-07-29T06:31:27;9.52;;;4.35;;
52786;SDS011;38661;53.152;5.846;2023-07-29T06:33:54;12.20;;;3.95;;
52786;SDS011;38661;53.152;5.846;2023-07-29T06:36:20;11.02;;;4.35;;
52786;SDS011;38661;53.152;5.846;2023-07-29T06:38:46;12.35;;;4.18;;
52786;SDS011;38661;53.152;5.846;2023-07-29T06:41:11;11.38;;;4.55;;
52786;SDS011;38661;53.152;5.846;2023-07-29T06:43:37;9.98;;;4.07;;
52786;SDS011;38661;53.152;5.846;2023-07-29T06:46:03;10.95;;;4.75;;
52786;SDS011;38661;53.152;5.846;2023-07-29T06:48:28;10.93;;;4.55;;
52786;SDS011;38661;53.152;5.846;2023-07-29T06:50:54;8.85;;;4.40;;
52786;SDS011;38661;53.152;5.846;2023-07-29T06:53:20;12.18;;;4.47;;
52786;SDS011;38661;53.152;5.846;2023-07-29T06:55:46;7.20;;;3.83;;
52786;SDS011;38661;53.152;5.846;2023-07-29T06:58:12;7.57;;;4.07;;
52786;SDS011;38661;53.152;5.846;2023-07-29T07:00:38;13.10;;;5.43;;
52786;SDS011;38661;53.152;5.846;2023-07-29T07:03:04;14.52;;;5.30;;
52786;SDS011;38661;53.152;5.846;2023-07-29T07:05:29;12.20;;;3.95;;
52786;SDS011;38661;53.152;5.846;2023-07-29T07:07:55;11.82;;;4.90;;
52786;SDS011;38661;53.152;5.846;2023-07-29T07:10:21;12.05;;;4.32;;
52786;SDS011;38661;53.152;5.846;2023-07-29T07:12:46;8.82;;;3.53;;
52786;SDS011;38661;53.152;5.846;2023-07-29T07:15:12;9.15;;;3.55;;
52786;SDS011;38661;53.152;5.846;2023-07-29T07:17:38;10.18;;;4.63;;
52786;SDS011;38661;53.152;5.846;2023-07-29T07:20:04;10.73;;;4.45;;
52786;SDS011;38661;53.152;5.846;2023-07-29T07:22:31;6.85;;;3.35;;
52786;SDS011;38661;53.152;5.846;2023-07-29T07:24:56;9.35;;;3.80;;
52786;SDS011;38661;53.152;5.846;2023-07-29T07:27:22;9.82;;;3.80;;
52786;SDS011;38661;53.152;5.846;2023-07-29T07:29:48;9.15;;;3.25;;
52786;SDS011;38661;53.152;5.846;2023-07-29T07:32:14;9.05;;;3.33;;
52786;SDS011;38661;53.152;5.846;2023-07-29T07:34:39;7.93;;;3.35;;
52786;SDS011;38661;53.152;5.846;2023-07-29T07:37:05;9.85;;;3.20;;
52786;SDS011;38661;53.152;5.846;2023-07-29T07:39:31;9.60;;;3.85;;
52786;SDS011;38661;53.152;5.846;2023-07-29T07:41:57;7.78;;;3.25;;
52786;SDS011;38661;53.152;5.846;2023-07-29T07:44:23;5.40;;;2.50;;
52786;SDS011;38661;53.152;5.846;2023-07-29T07:46:51;7.63;;;3.40;;
52786;SDS011;38661;53.152;5.846;2023-07-29T07:49:18;5.63;;;2.58;;
52786;SDS011;38661;53.152;5.846;2023-07-29T07:51:44;7.75;;;2.70;;
52786;SDS011;38661;53.152;5.846;2023-07-29T07:54:10;7.97;;;3.90;;
52786;SDS011;38661;53.152;5.846;2023-07-29T07:56:35;9.73;;;3.30;;
52786;SDS011;38661;53.152;5.846;2023-07-29T07:59:01;6.63;;;3.10;;
52786;SDS011;38661;53.152;5.846;2023-07-29T08:01:27;6.78;;;3.13;;
52786;SDS011;38661;53.152;5.846;2023-07-29T08:03:52;11.32;;;3.30;;
52786;SDS011;38661;53.152;5.846;2023-07-29T08:06:18;8.57;;;3.63;;
52786;SDS011;38661;53.152;5.846;2023-07-29T08:08:44;8.85;;;3.50;;
52786;SDS011;38661;53.152;5.846;2023-07-29T08:11:10;6.15;;;3.25;;
52786;SDS011;38661;53.152;5.846;2023-07-29T08:13:36;9.25;;;3.55;;
52786;SDS011;38661;53.152;5.846;2023-07-29T08:16:01;7.13;;;2.97;;
52786;SDS011;38661;53.152;5.846;2023-07-29T08:18:27;8.10;;;2.80;;
52786;SDS011;38661;53.152;5.846;2023-07-29T08:23:20;6.78;;;2.63;;
52786;SDS011;38661;53.152;5.846;2023-07-29T08:25:53;8.30;;;2.40;;
52786;SDS011;38661;53.152;5.846;2023-07-29T08:28:24;5.60;;;2.55;;
52786;SDS011;38661;53.152;5.846;2023-07-29T08:30:50;9.88;;;3.47;;
52786;SDS011;38661;53.152;5.846;2023-07-29T08:33:15;4.97;;;2.17;;
52786;SDS011;38661;53.152;5.846;2023-07-29T08:35:41;5.82;;;2.90;;
52786;SDS011;38661;53.152;5.846;2023-07-29T08:38:07;8.45;;;2.80;;
52786;SDS011;38661;53.152;5.846;2023-07-29T08:40:34;7.15;;;2.60;;
52786;SDS011;38661;53.152;5.846;2023-07-29T08:43:03;6.78;;;2.92;;
52786;SDS011;38661;53.152;5.846;2023-07-29T08:45:34;8.60;;;2.78;;
52786;SDS011;38661;53.152;5.846;2023-07-29T08:48:07;4.88;;;2.40;;
52786;SDS011;38661;53.152;5.846;2023-07-29T08:50:35;7.05;;;2.63;;
52786;SDS011;38661;53.152;5.846;2023-07-29T08:53:04;8.02;;;2.45;;
52786;SDS011;38661;53.152;5.846;2023-07-29T08:55:31;7.30;;;2.22;;
52786;SDS011;38661;53.152;5.846;2023-07-29T08:57:58;3.85;;;2.03;;
52786;SDS011;38661;53.152;5.846;2023-07-29T09:00:25;8.40;;;2.42;;
52786;SDS011;38661;53.152;5.846;2023-07-29T09:02:52;5.95;;;2.17;;
52786;SDS011;38661;53.152;5.846;2023-07-29T09:05:18;8.30;;;2.25;;
52786;SDS011;38661;53.152;5.846;2023-07-29T09:07:45;8.13;;;2.42;;
52786;SDS011;38661;53.152;5.846;2023-07-29T09:10:13;5.85;;;2.30;;
52786;SDS011;38661;53.152;5.846;2023-07-29T09:12:39;9.00;;;2.58;;
52786;SDS011;38661;53.152;5.846;2023-07-29T09:15:05;5.95;;;2.38;;
52786;SDS011;38661;53.152;5.846;2023-07-29T09:17:34;5.82;;;2.80;;
52786;SDS011;38661;53.152;5.846;2023-07-29T09:20:00;7.32;;;2.38;;
52786;SDS011;38661;53.152;5.846;2023-07-29T09:22:26;7.43;;;2.40;;
52786;SDS011;38661;53.152;5.846;2023-07-29T09:24:53;9.55;;;2.60;;
52786;SDS011;38661;53.152;5.846;2023-07-29T09:27:25;4.68;;;2.40;;
52786;SDS011;38661;53.152;5.846;2023-07-29T09:29:52;6.85;;;3.20;;
52786;SDS011;38661;53.152;5.846;2023-07-29T09:32:22;7.35;;;2.42;;
52786;SDS011;38661;53.152;5.846;2023-07-29T09:34:50;4.95;;;3.35;;
52786;SDS011;38661;53.152;5.846;2023-07-29T09:37:22;6.85;;;3.53;;
52786;SDS011;38661;53.152;5.846;2023-07-29T09:39:49;6.13;;;3.13;;
52786;SDS011;38661;53.152;5.846;2023-07-29T09:42:19;6.63;;;2.78;;
52786;SDS011;38661;53.152;5.846;2023-07-29T09:44:45;6.10;;;3.00;;
52786;SDS011;38661;53.152;5.846;2023-07-29T09:49:47;7.55;;;2.50;;
52786;SDS011;38661;53.152;5.846;2023-07-29T09:52:16;5.88;;;2.97;;
52786;SDS011;38661;53.152;5.846;2023-07-29T09:54:43;4.20;;;2.22;;
52786;SDS011;38661;53.152;5.846;2023-07-29T09:57:16;9.15;;;3.55;;
52786;SDS011;38661;53.152;5.846;2023-07-29T10:02:18;4.72;;;2.13;;
52786;SDS011;38661;53.152;5.846;2023-07-29T10:04:46;3.95;;;1.90;;
52786;SDS011;38661;53.152;5.846;2023-07-29T10:07:11;6.30;;;2.38;;
52786;SDS011;38661;53.152;5.846;2023-07-29T10:09:38;3.17;;;1.98;;
52786;SDS011;38661;53.152;5.846;2023-07-29T10:12:07;6.13;;;2.13;;
52786;SDS011;38661;53.152;5.846;2023-07-29T10:14:36;4.18;;;1.63;;
52786;SDS011;38661;53.152;5.846;2023-07-29T10:17:04;3.72;;;1.80;;
52786;SDS011;38661;53.152;5.846;2023-07-29T10:19:31;3.45;;;2.05;;
52786;SDS011;38661;53.152;5.846;2023-07-29T10:21:59;3.42;;;2.03;;
52786;SDS011;38661;53.152;5.846;2023-07-29T10:24:32;3.75;;;2.00;;
52786;SDS011;38661;53.152;5.846;2023-07-29T10:26:58;2.92;;;2.13;;
52786;SDS011;38661;53.152;5.846;2023-07-29T10:29:32;4.20;;;1.90;;
52786;SDS011;38661;53.152;5.846;2023-07-29T10:32:03;1.60;;;1.30;;
52786;SDS011;38661;53.152;5.846;2023-07-29T10:34:30;5.55;;;1.95;;
52786;SDS011;38661;53.152;5.846;2023-07-29T10:36:57;2.92;;;1.40;;
52786;SDS011;38661;53.152;5.846;2023-07-29T10:39:24;4.82;;;2.30;;
52786;SDS011;38661;53.152;5.846;2023-07-29T10:41:54;3.03;;;1.98;;
52786;SDS011;38661;53.152;5.846;2023-07-29T10:44:45;5.97;;;1.70;;
52786;SDS011;38661;53.152;5.846;2023-07-29T10:49:44;4.45;;;1.85;;
52786;SDS011;38661;53.152;5.846;2023-07-29T10:52:15;3.55;;;2.13;;
52786;SDS011;38661;53.152;5.846;2023-07-29T10:54:45;4.68;;;2.55;;
52786;SDS011;38661;53.152;5.846;2023-07-29T10:57:12;7.20;;;2.72;;
52786;SDS011;38661;53.152;5.846;2023-07-29T10:59:55;6.68;;;2.60;;
52786;SDS011;38661;53.152;5.846;2023-07-29T11:02:22;6.95;;;2.83;;
52786;SDS011;38661;53.152;5.846;2023-07-29T11:04:57;6.22;;;2.13;;
52786;SDS011;38661;53.152;5.846;2023-07-29T11:07:25;2.92;;;1.75;;
52786;SDS011;38661;53.152;5.846;2023-07-29T11:09:52;4.32;;;1.77;;
52786;SDS011;38661;53.152;5.846;2023-07-29T11:17:37;5.82;;;3.08;;
52786;SDS011;38661;53.152;5.846;2023-07-29T11:20:04;7.00;;;3.88;;
52786;SDS011;38661;53.152;5.846;2023-07-29T11:22:32;5.97;;;3.15;;
52786;SDS011;38661;53.152;5.846;2023-07-29T11:24:58;4.88;;;2.58;;
52786;SDS011;38661;53.152;5.846;2023-07-29T11:27:24;3.58;;;2.63;;
52786;SDS011;38661;53.152;5.846;2023-07-29T11:29:50;4.68;;;2.50;;
52786;SDS011;38661;53.152;5.846;2023-07-29T11:32:16;3.25;;;2.22;;
52786;SDS011;38661;53.152;5.846;2023-07-29T11:34:42;5.40;;;2.78;;
52786;SDS011;38661;53.152;5.846;2023-07-29T11:37:11;5.60;;;2.60;;
52786;SDS011;38661;53.152;5.846;2023-07-29T11:39:43;5.72;;;2.22;;
52786;SDS011;38661;53.152;5.846;2023-07-29T11:42:10;2.60;;;1.60;;
52786;SDS011;38661;53.152;5.846;2023-07-29T11:44:37;3.17;;;1.35;;
52786;SDS011;38661;53.152;5.846;2023-07-29T11:47:09;2.55;;;1.60;;
52786;SDS011;38661;53.152;5.846;2023-07-29T11:49:37;5.93;;;2.47;;
52786;SDS011;38661;53.152;5.846;2023-07-29T11:52:05;4.15;;;2.00;;
52786;SDS011;38661;53.152;5.846;2023-07-29T11:54:35;3.65;;;1.90;;
52786;SDS011;38661;53.152;5.846;2023-07-29T11:57:03;4.25;;;2.08;;
52786;SDS011;38661;53.152;5.846;2023-07-29T11:59:34;4.07;;;1.90;;
52786;SDS011;38661;53.152;5.846;2023-07-29T12:02:01;8.20;;;2.80;;
52786;SDS011;38661;53.152;5.846;2023-07-29T12:04:30;6.95;;;2.60;;
52786;SDS011;38661;53.152;5.846;2023-07-29T12:06:57;3.08;;;1.88;;
52786;SDS011;38661;53.152;5.846;2023-07-29T12:09:23;4.72;;;1.90;;
52786;SDS011;38661;53.152;5.846;2023-07-29T12:11:49;3.10;;;1.65;;
52786;SDS011;38661;53.152;5.846;2023-07-29T12:14:17;6.63;;;2.17;;
52786;SDS011;38661;53.152;5.846;2023-07-29T12:16:43;7.68;;;2.30;;
52786;SDS011;38661;53.152;5.846;2023-07-29T12:19:12;5.40;;;2.50;;
52786;SDS011;38661;53.152;5.846;2023-07-29T12:21:40;6.43;;;2.40;;
52786;SDS011;38661;53.152;5.846;2023-07-29T12:24:07;5.47;;;1.98;;
52786;SDS011;38661;53.152;5.846;2023-07-29T12:26:32;3.95;;;1.83;;
52786;SDS011;38661;53.152;5.846;2023-07-29T12:28:58;4.68;;;1.90;;
52786;SDS011;38661;53.152;5.846;2023-07-29T12:31:31;5.63;;;2.10;;
52786;SDS011;38661;53.152;5.846;2023-07-29T12:33:57;4.50;;;2.50;;
52786;SDS011;38661;53.152;5.846;2023-07-29T12:36:27;6.45;;;3.08;;
52786;SDS011;38661;53.152;5.846;2023-07-29T12:39:05;7.63;;;2.92;;
52786;SDS011;38661;53.152;5.846;2023-07-29T12:41:31;8.55;;;4.03;;
52786;SDS011;38661;53.152;5.846;2023-07-29T12:43:56;8.13;;;3.15;;
52786;SDS011;38661;53.152;5.846;2023-07-29T12:46:22;8.57;;;4.55;;
52786;SDS011;38661;53.152;5.846;2023-07-29T12:48:54;10.13;;;5.60;;
52786;SDS011;38661;53.152;5.846;2023-07-29T12:51:20;7.30;;;3.20;;
52786;SDS011;38661;53.152;5.846;2023-07-29T12:53:46;7.07;;;3.53;;
52786;SDS011;38661;53.152;5.846;2023-07-29T12:56:11;4.55;;;2.53;;
52786;SDS011;38661;53.152;5.846;2023-07-29T12:58:37;5.82;;;3.33;;
52786;SDS011;38661;53.152;5.846;2023-07-29T13:01:03;8.13;;;2.95;;
52786;SDS011;38661;53.152;5.846;2023-07-29T13:03:28;8.18;;;3.80;;
52786;SDS011;38661;53.152;5.846;2023-07-29T13:05:54;9.00;;;3.13;;
52786;SDS011;38661;53.152;5.846;2023-07-29T13:08:20;4.65;;;3.08;;
52786;SDS011;38661;53.152;5.846;2023-07-29T13:10:46;7.45;;;4.60;;
52786;SDS011;38661;53.152;5.846;2023-07-29T13:13:11;7.40;;;3.47;;
52786;SDS011;38661;53.152;5.846;2023-07-29T13:15:37;5.30;;;2.90;;
52786;SDS011;38661;53.152;5.846;2023-07-29T13:18:03;5.32;;;2.78;;
52786;SDS011;38661;53.152;5.846;2023-07-29T13:20:29;4.53;;;2.65;;
52786;SDS011;38661;53.152;5.846;2023-07-29T13:22:55;5.03;;;2.80;;
52786;SDS011;38661;53.152;5.846;2023-07-29T13:25:21;6.18;;;3.65;;
52786;SDS011;38661;53.152;5.846;2023-07-29T13:27:46;7.20;;;4.15;;
52786;SDS011;38661;53.152;5.846;2023-07-29T13:30:12;12.48;;;5.40;;
52786;SDS011;38661;53.152;5.846;2023-07-29T13:32:38;8.85;;;4.68;;
52786;SDS011;38661;53.152;5.846;2023-07-29T13:35:03;5.90;;;3.65;;
52786;SDS011;38661;53.152;5.846;2023-07-29T13:37:29;5.18;;;2.10;;
52786;SDS011;38661;53.152;5.846;2023-07-29T13:39:55;6.65;;;2.78;;
52786;SDS011;38661;53.152;5.846;2023-07-29T13:42:21;6.55;;;2.45;;
52786;SDS011;38661;53.152;5.846;2023-07-29T13:44:46;4.53;;;3.08;;
52786;SDS011;38661;53.152;5.846;2023-07-29T13:47:12;3.72;;;2.38;;
52786;SDS011;38661;53.152;5.846;2023-07-29T13:49:38;3.22;;;2.13;;
52786;SDS011;38661;53.152;5.846;2023-07-29T13:52:03;5.45;;;2.67;;
52786;SDS011;38661;53.152;5.846;2023-07-29T13:54:29;5.88;;;2.30;;
52786;SDS011;38661;53.152;5.846;2023-07-29T13:56:55;4.00;;;1.92;;
52786;SDS011;38661;53.152;5.846;2023-07-29T13:59:20;8.98;;;3.42;;
52786;SDS011;38661;53.152;5.846;2023-07-29T14:01:46;2.65;;;1.67;;
52786;SDS011;38661;53.152;5.846;2023-07-29T14:04:12;6.10;;;2.60;;
52786;SDS011;38661;53.152;5.846;2023-07-29T14:06:37;6.85;;;2.67;;
52786;SDS011;38661;53.152;5.846;2023-07-29T14:09:03;6.10;;;2.40;;
52786;SDS011;38661;53.152;5.846;2023-07-29T14:11:29;6.55;;;3.13;;
52786;SDS011;38661;53.152;5.846;2023-07-29T14:13:54;5.63;;;2.50;;
52786;SDS011;38661;53.152;5.846;2023-07-29T14:16:20;4.18;;;1.70;;
52786;SDS011;38661;53.152;5.846;2023-07-29T14:18:46;3.38;;;1.90;;
52786;SDS011;38661;53.152;5.846;2023-07-29T14:21:12;3.55;;;1.77;;
52786;SDS011;38661;53.152;5.846;2023-07-29T14:23:37;7.72;;;2.22;;
52786;SDS011;38661;53.152;5.846;2023-07-29T14:26:03;4.47;;;2.15;;
52786;SDS011;38661;53.152;5.846;2023-07-29T14:28:29;4.25;;;2.10;;
52786;SDS011;38661;53.152;5.846;2023-07-29T14:30:55;5.07;;;2.33;;
52786;SDS011;38661;53.152;5.846;2023-07-29T14:33:21;6.72;;;3.45;;
52786;SDS011;38661;53.152;5.846;2023-07-29T14:35:47;7.50;;;2.22;;
52786;SDS011;38661;53.152;5.846;2023-07-29T14:38:12;6.13;;;2.83;;
52786;SDS011;38661;53.152;5.846;2023-07-29T14:40:38;3.47;;;1.90;;
52786;SDS011;38661;53.152;5.846;2023-07-29T14:43:04;5.43;;;2.22;;
52786;SDS011;38661;53.152;5.846;2023-07-29T14:45:30;6.90;;;2.65;;
52786;SDS011;38661;53.152;5.846;2023-07-29T14:47:56;4.55;;;2.55;;
52786;SDS011;38661;53.152;5.846;2023-07-29T14:50:21;4.13;;;2.65;;
52786;SDS011;38661;53.152;5.846;2023-07-29T14:52:47;7.15;;;2.58;;
52786;SDS011;38661;53.152;5.846;2023-07-29T14:55:13;5.68;;;2.20;;
52786;SDS011;38661;53.152;5.846;2023-07-29T14:57:39;4.90;;;2.55;;
52786;SDS011;38661;53.152;5.846;2023-07-29T15:00:06;4.68;;;2.97;;
52786;SDS011;38661;53.152;5.846;2023-07-29T15:02:32;6.25;;;2.58;;
52786;SDS011;38661;53.152;5.846;2023-07-29T15:04:58;5.50;;;2.90;;
52786;SDS011;38661;53.152;5.846;2023-07-29T15:07:24;7.55;;;3.05;;